Time;durP1;ratioP1;P1;durP2;ratioP2;P2;SDS_P1;SDS_P2;PMS_P1;PMS_P2;Temp;Humidity;BMP_temperature;BMP_pressure;BME280_temperature;BME280_humidity;BME280_pressure;Samples;Min_cycle;Max_cycle;Signal;HPM_P1;HPM_P2
2021/07/30 00:01:41;;;;;;;12.65;6.07;;;;;;;16.95;67.43;99477.03;4982633;28;20069;-63
2021/07/30 00:04:28;;;;;;;11.95;5.97;;;;;;;16.94;67.37;99485.75;4983514;28;20156;-63
2021/07/30 00:07:18;;;;;;;14.23;6.50;;;;;;;16.93;67.36;99486.63;4983694;28;20049;-63
2021/07/30 00:10:08;;;;;;;15.93;6.95;;;;;;;16.93;66.89;99485.78;4983447;28;20054;-63
2021/07/30 00:12:55;;;;;;;16.55;7.18;;;;;;;16.90;67.41;99489.31;4982957;28;20049;-63
2021/07/30 00:15:40;;;;;;;15.48;7.10;;;;;;;16.91;67.46;99483.19;4982737;28;20101;-63
2021/07/30 00:18:29;;;;;;;17.35;7.40;;;;;;;16.88;67.44;99478.03;4997713;28;20510;-63
2021/07/30 00:21:16;;;;;;;24.38;8.50;;;;;;;16.87;67.53;99471.06;4983258;28;20386;-62
2021/07/30 00:24:03;;;;;;;19.52;7.38;;;;;;;16.86;67.68;99474.56;4982792;28;20105;-64
2021/07/30 00:26:56;;;;;;;19.98;7.03;;;;;;;16.87;67.46;99465.84;4982590;28;20048;-62
2021/07/30 00:29:49;;;;;;;21.60;7.82;;;;;;;16.86;67.52;99467.56;4982595;28;20054;-62
2021/07/30 00:32:38;;;;;;;15.77;6.78;;;;;;;16.84;67.56;99471.13;4982632;28;20453;-62
2021/07/30 00:35:31;;;;;;;17.15;6.93;;;;;;;16.83;67.49;99464.16;4983000;28;20081;-61
2021/07/30 00:38:23;;;;;;;14.60;6.80;;;;;;;16.83;67.60;99461.53;4997429;28;20046;-62
2021/07/30 00:41:17;;;;;;;11.13;6.28;;;;;;;16.82;67.62;99460.66;4982544;28;20061;-62
2021/07/30 00:44:07;;;;;;;16.60;6.93;;;;;;;16.82;67.64;99467.66;4982120;28;20045;-61
2021/07/30 00:46:57;;;;;;;12.63;5.95;;;;;;;16.81;67.94;99463.31;4981976;28;20052;-62
2021/07/30 00:49:43;;;;;;;12.38;5.35;;;;;;;16.82;67.64;99459.81;4982448;28;20053;-62
2021/07/30 00:52:33;;;;;;;12.32;5.53;;;;;;;16.80;67.62;99448.50;4996904;28;20420;-63
2021/07/30 00:55:25;;;;;;;17.33;6.60;;;;;;;16.79;67.96;99452.00;4982103;28;20054;-63
2021/07/30 00:58:10;;;;;;;14.43;5.25;;;;;;;16.78;67.45;99443.31;4982135;28;20095;-63
2021/07/30 01:01:00;;;;;;;18.13;5.22;;;;;;;16.78;67.46;99456.41;4982253;28;20053;-63
2021/07/30 01:03:50;;;;;;;12.25;5.47;;;;;;;16.77;67.58;99449.44;4982294;28;20057;-63
2021/07/30 01:06:35;;;;;;;8.93;4.75;;;;;;;16.75;67.50;99452.06;4982419;28;20110;-62
2021/07/30 01:09:24;;;;;;;;;;;;;;;16.74;67.58;99439.03;4996118;28;20478;-62
2021/07/30 01:12:09;;;;;;;10.38;4.80;;;;;;;16.73;67.48;99447.78;4982136;28;19929;-62
2021/07/30 01:14:56;;;;;;;6.90;4.55;;;;;;;16.72;67.58;99449.53;4996635;28;20142;-62
2021/07/30 01:17:40;;;;;;;10.38;4.70;;;;;;;16.73;67.55;99453.00;4982073;28;20157;-62
2021/07/30 01:20:28;;;;;;;8.25;4.20;;;;;;;16.73;67.62;99453.00;4981942;28;20192;-61
2021/07/30 01:23:13;;;;;;;12.13;5.32;;;;;;;16.72;67.51;99449.53;4981707;28;20109;-63
2021/07/30 01:26:02;;;;;;;6.88;4.28;;;;;;;16.73;67.57;99448.66;4996653;28;20061;-62
2021/07/30 01:28:47;;;;;;;10.77;4.60;;;;;;;16.72;67.64;99440.81;4981776;28;20068;-61
2021/07/30 01:31:40;;;;;;;11.05;5.72;;;;;;;16.72;67.73;99446.91;4981745;28;20121;-62
2021/07/30 01:34:27;;;;;;;8.32;4.45;;;;;;;16.72;67.70;99446.91;4981468;28;20051;-62
2021/07/30 01:37:18;;;;;;;10.10;3.97;;;;;;;16.72;67.51;99439.06;4981320;28;20046;-61
2021/07/30 01:40:06;;;;;;;16.60;4.55;;;;;;;16.70;67.87;99438.22;4981422;28;20049;-61
2021/07/30 01:42:53;;;;;;;9.38;4.15;;;;;;;16.68;67.52;99437.41;4981245;28;20573;-63
2021/07/30 01:45:37;;;;;;;6.95;4.40;;;;;;;16.68;67.70;99428.66;4980997;28;20093;-64
2021/07/30 01:48:21;;;;;;;7.25;3.90;;;;;;;16.66;67.89;99436.56;4981510;28;20048;-63
2021/07/30 01:51:14;;;;;;;9.00;3.97;;;;;;;16.65;67.72;99431.38;4981675;28;20535;-64
2021/07/30 01:54:04;;;;;;;7.13;4.65;;;;;;;16.63;67.72;99418.28;4981761;28;20053;-63
2021/07/30 01:56:54;;;;;;;10.15;4.43;;;;;;;16.61;67.56;99417.47;4981052;28;20528;-63
2021/07/30 01:59:43;;;;;;;7.45;3.80;;;;;;;16.61;67.76;99409.59;4996161;28;20065;-63
2021/07/30 02:02:33;;;;;;;9.63;4.55;;;;;;;16.60;67.68;99413.13;4980661;28;20425;-63
2021/07/30 02:05:20;;;;;;;9.60;4.32;;;;;;;16.59;67.68;99408.78;4981138;28;20438;-64
2021/07/30 02:08:10;;;;;;;12.45;5.15;;;;;;;16.59;67.68;99414.88;4980711;28;20142;-61
2021/07/30 02:10:56;;;;;;;6.70;4.43;;;;;;;16.60;67.61;99405.25;4980775;28;20125;-61
2021/07/30 02:16:49;;;;;;;6.40;4.43;;;;;;;16.56;67.59;99396.63;4995801;28;20104;-61
2021/07/30 02:19:33;;;;;;;7.97;4.22;;;;;;;16.56;67.80;99401.00;4980900;28;20134;-61
2021/07/30 02:22:20;;;;;;;7.70;3.83;;;;;;;16.55;67.75;99410.59;4980794;28;20104;-61
2021/07/30 02:25:07;;;;;;;11.32;4.45;;;;;;;16.54;67.48;99406.25;4995411;28;20049;-61
2021/07/30 02:28:02;;;;;;;7.25;3.78;;;;;;;16.54;67.68;99402.78;4980491;28;20053;-62
2021/07/30 02:30:50;;;;;;;11.13;4.70;;;;;;;16.52;68.01;99400.19;4980837;28;20124;-62
2021/07/30 02:33:36;;;;;;;6.75;4.30;;;;;;;16.51;67.78;99395.84;4995084;28;20077;-62
2021/07/30 02:36:21;;;;;;;7.15;3.60;;;;;;;16.50;67.58;99396.75;4980724;28;20097;-61
2021/07/30 02:39:05;;;;;;;6.45;3.33;;;;;;;16.50;67.91;99394.16;4980378;28;20057;-62
2021/07/30 02:41:51;;;;;;;8.77;3.97;;;;;;;16.47;67.63;99388.97;4995360;28;20468;-61
2021/07/30 02:44:38;;;;;;;5.45;3.63;;;;;;;16.47;67.61;99401.16;4995135;28;20421;-64
2021/07/30 02:47:25;;;;;;;10.35;3.28;;;;;;;16.46;67.37;99394.19;4980670;28;20081;-61
2021/07/30 02:50:13;;;;;;;9.27;4.25;;;;;;;16.45;67.57;99393.34;4995188;28;20100;-62
2021/07/30 02:52:57;;;;;;;6.25;3.80;;;;;;;16.44;67.57;99384.63;4979885;28;20097;-61
2021/07/30 02:55:41;;;;;;;6.53;3.47;;;;;;;16.43;67.67;99382.91;4979784;28;20053;-62
2021/07/30 02:58:28;;;;;;;4.43;3.75;;;;;;;16.43;67.68;99379.44;4980150;28;20108;-62
2021/07/30 03:01:12;;;;;;;7.57;3.85;;;;;;;16.40;67.46;99375.16;4979605;28;20046;-61
2021/07/30 03:03:58;;;;;;;6.85;3.90;;;;;;;16.39;67.58;99370.81;4994604;28;20054;-61
2021/07/30 03:06:48;;;;;;;8.82;3.42;;;;;;;16.38;67.44;99362.97;4979692;28;20077;-62
2021/07/30 03:09:37;;;;;;;9.27;3.92;;;;;;;16.37;67.53;99371.69;4979991;28;20556;-62
2021/07/30 03:12:30;;;;;;;7.63;3.78;;;;;;;16.36;67.56;99370.84;4994279;28;20467;-62
2021/07/30 03:15:23;;;;;;;6.60;3.90;;;;;;;16.34;67.59;99362.16;4979507;28;20461;-61
2021/07/30 03:18:15;;;;;;;7.60;4.63;;;;;;;16.34;67.59;99370.00;4979670;28;20057;-62
2021/07/30 03:21:00;;;;;;;10.27;3.55;;;;;;;16.33;67.38;99362.22;4994374;28;20049;-61
2021/07/30 03:23:43;;;;;;;3.97;3.17;;;;;;;16.33;67.56;99362.22;4993951;28;20081;-61
2021/07/30 03:26:27;;;;;;;8.00;3.75;;;;;;;16.32;67.33;99357.88;4994450;28;20104;-61
2021/07/30 03:29:14;;;;;;;6.28;3.33;;;;;;;16.30;67.30;99357.88;4979361;28;20117;-61
2021/07/30 03:32:04;;;;;;;5.75;3.78;;;;;;;16.29;67.35;99362.25;4993912;28;20450;-61
2021/07/30 03:34:52;;;;;;;5.22;3.50;;;;;;;16.29;67.37;99359.66;4994087;28;20112;-61
2021/07/30 03:37:46;;;;;;;7.05;3.63;;;;;;;16.28;67.35;99351.81;4979236;28;20049;-62
2021/07/30 03:40:35;;;;;;;5.38;3.42;;;;;;;16.27;67.26;99355.34;4979301;28;20112;-61
2021/07/30 03:43:22;;;;;;;7.47;3.65;;;;;;;16.26;67.43;99353.63;4979578;28;20463;-61
2021/07/30 03:46:15;;;;;;;8.65;3.75;;;;;;;16.26;67.23;99353.63;4994390;28;20109;-62
2021/07/30 03:48:59;;;;;;;6.95;2.70;;;;;;;16.25;67.29;99362.34;4979427;28;20457;-63
2021/07/30 03:51:46;;;;;;;5.85;3.95;;;;;;;16.23;67.38;99354.53;4994150;28;20045;-63
2021/07/30 03:54:30;;;;;;;11.32;4.30;;;;;;;16.24;67.21;99352.78;4994133;28;20053;-63
2021/07/30 03:57:14;;;;;;;12.68;4.55;;;;;;;16.22;67.25;99349.31;4979571;28;20053;-63
2021/07/30 04:00:00;;;;;;;6.10;3.45;;;;;;;16.22;67.27;99362.41;4994178;28;20053;-63
2021/07/30 04:02:47;;;;;;;7.53;3.83;;;;;;;16.21;67.00;99358.91;4993820;28;20113;-63
2021/07/30 04:05:34;;;;;;;5.90;3.75;;;;;;;16.20;67.14;99357.19;4994026;28;20050;-63
2021/07/30 04:08:18;;;;;;;5.75;3.28;;;;;;;16.21;67.28;99355.44;4978996;28;20100;-63
2021/07/30 04:11:08;;;;;;;10.73;3.78;;;;;;;16.20;67.09;99362.41;4978750;28;20058;-63
2021/07/30 04:13:52;;;;;;;10.27;3.70;;;;;;;16.20;67.18;99349.34;4978975;28;20054;-63
2021/07/30 04:16:40;;;;;;;6.65;4.00;;;;;;;16.20;67.26;99353.72;4993750;28;20089;-63
2021/07/30 04:19:23;;;;;;;8.32;3.30;;;;;;;16.18;67.23;99350.28;4979366;28;20054;-63
2021/07/30 04:22:07;;;;;;;4.43;3.13;;;;;;;16.18;67.20;99340.69;4993374;28;20428;-63
2021/07/30 04:24:51;;;;;;;8.82;3.42;;;;;;;16.18;66.87;99339.81;4993718;28;20089;-63
2021/07/30 04:27:41;;;;;;;7.10;3.42;;;;;;;16.18;67.11;99345.03;4979193;28;20081;-62
2021/07/30 04:30:25;;;;;;;5.07;3.58;;;;;;;16.17;67.13;99341.56;4979525;28;20057;-63
2021/07/30 04:33:12;;;;;;;5.78;3.47;;;;;;;16.16;67.13;99345.06;4978969;28;20050;-63
2021/07/30 04:35:59;;;;;;;5.13;3.17;;;;;;;16.16;67.13;99337.25;4993565;28;20046;-63
2021/07/30 04:38:43;;;;;;;6.10;3.55;;;;;;;16.16;67.24;99334.63;4978319;28;20053;-63
2021/07/30 04:41:27;;;;;;;8.27;3.50;;;;;;;16.14;67.17;99329.41;4979387;28;20049;-63
2021/07/30 04:44:14;;;;;;;6.93;3.72;;;;;;;16.14;66.96;99333.78;4981429;28;20052;-63
2021/07/30 04:46:59;;;;;;;7.80;4.10;;;;;;;16.14;67.32;99331.16;4982447;28;20049;-62
2021/07/30 04:49:57;;;;;;;9.55;3.50;;;;;;;16.16;67.02;99331.13;4997521;28;20145;-63
2021/07/30 04:52:44;;;;;;;8.00;3.35;;;;;;;16.15;67.21;99330.28;4982768;28;20069;-61
2021/07/30 04:55:34;;;;;;;4.88;3.15;;;;;;;16.16;67.07;99323.28;4996837;28;20540;-61
2021/07/30 04:58:21;;;;;;;5.40;3.72;;;;;;;16.14;66.91;99326.78;4982057;28;20592;-61
2021/07/30 05:01:05;;;;;;;5.47;3.15;;;;;;;16.14;67.10;99326.78;4996865;28;20046;-61
2021/07/30 05:03:50;;;;;;;5.10;3.67;;;;;;;16.14;66.86;99331.16;4981787;28;20137;-61
2021/07/30 05:06:34;;;;;;;;;;;;;;;16.11;66.87;99326.88;4982834;28;20069;-61
2021/07/30 05:09:18;;;;;;;6.50;3.63;;;;;;;16.11;67.08;99323.38;4996651;28;19925;-63
2021/07/30 05:12:02;;;;;;;7.25;3.28;;;;;;;16.12;66.97;99325.94;4996551;28;20041;-62
2021/07/30 05:14:47;;;;;;;5.63;3.50;;;;;;;16.12;67.06;99323.34;4996681;28;20189;-63
2021/07/30 05:17:31;;;;;;;9.13;3.53;;;;;;;16.13;67.06;99321.59;4981648;28;20042;-63
2021/07/30 05:20:15;;;;;;;;;;;;;;;16.12;66.99;99318.09;4982262;28;20125;-63
2021/07/30 05:23:02;;;;;;;6.10;3.30;;;;;;;16.12;67.08;99312.88;4996218;28;19921;-61
2021/07/30 05:25:54;;;;;;;5.40;3.40;;;;;;;16.13;66.91;99306.78;4996354;28;20061;-63
2021/07/30 05:28:38;;;;;;;7.38;3.13;;;;;;;16.14;67.12;99305.03;4981737;28;20053;-63
2021/07/30 05:31:25;;;;;;;5.20;3.10;;;;;;;16.15;67.11;99304.16;4996306;28;20521;-63
2021/07/30 05:34:12;;;;;;;5.38;3.60;;;;;;;16.16;67.02;99305.00;4981540;28;20526;-63
2021/07/30 05:37:05;;;;;;;7.88;3.53;;;;;;;16.15;66.92;99301.53;4981960;28;20050;-63
2021/07/30 05:39:57;;;;;;;10.02;4.20;;;;;;;16.17;67.01;99299.75;4996262;28;20116;-63
2021/07/30 05:42:50;;;;;;;8.32;3.97;;;;;;;16.18;66.71;99311.06;4996311;28;20061;-63
2021/07/30 05:45:45;;;;;;;7.82;3.63;;;;;;;16.18;66.99;99296.25;4981593;28;20105;-63
2021/07/30 05:48:40;;;;;;;4.75;3.17;;;;;;;16.19;67.01;99297.97;4995782;28;20517;-63
2021/07/30 05:51:30;;;;;;;9.10;4.03;;;;;;;16.20;66.68;99298.81;4981137;28;20172;-63
2021/07/30 05:54:22;;;;;;;9.18;3.60;;;;;;;16.20;66.94;99298.81;4980769;28;20045;-63
2021/07/30 05:57:06;;;;;;;6.38;3.28;;;;;;;16.22;67.20;99297.03;4981143;28;20561;-63
2021/07/30 05:59:50;;;;;;;4.43;2.90;;;;;;;16.23;67.02;99291.78;4995978;28;20048;-63
2021/07/30 06:02:40;;;;;;;5.75;3.38;;;;;;;16.24;67.07;99290.03;4981065;28;20069;-63
2021/07/30 06:05:32;;;;;;;5.80;3.45;;;;;;;16.24;67.07;99298.72;4980892;28;20466;-63
2021/07/30 06:08:22;;;;;;;4.95;3.65;;;;;;;16.24;66.97;99303.97;4980944;28;20060;-63
2021/07/30 06:11:17;;;;;;;4.45;3.50;;;;;;;16.24;66.94;99300.50;4980923;28;20050;-62
2021/07/30 06:14:12;;;;;;;5.47;3.38;;;;;;;16.24;66.94;99295.28;4995409;28;20104;-63
2021/07/30 06:17:07;;;;;;;6.20;3.15;;;;;;;16.24;66.94;99300.50;4995143;28;20076;-63
2021/07/30 06:20:01;;;;;;;5.95;3.28;;;;;;;16.25;67.17;99295.22;4980771;28;20110;-63
2021/07/30 06:22:45;;;;;;;5.15;3.20;;;;;;;16.26;67.12;99302.19;4980603;28;20552;-62
2021/07/30 06:25:29;;;;;;;6.00;3.20;;;;;;;16.27;67.05;99292.59;4995698;28;20136;-62
2021/07/30 06:28:22;;;;;;;5.70;2.95;;;;;;;16.27;67.05;99285.59;4980600;28;20524;-61
2021/07/30 06:31:15;;;;;;;8.10;4.35;;;;;;;16.28;66.92;99292.56;4980457;28;20096;-61
2021/07/30 06:34:11;;;;;;;9.90;3.65;;;;;;;16.30;67.41;99289.91;4995201;28;20084;-62
2021/07/30 06:37:09;;;;;;;4.25;2.75;;;;;;;16.30;66.96;99289.91;4980678;28;20112;-62
2021/07/30 06:40:02;;;;;;;18.98;3.90;;;;;;;16.32;66.98;99287.28;4995147;28;20041;-61
2021/07/30 06:42:57;;;;;;;5.72;3.38;;;;;;;16.32;67.09;99285.50;4980176;28;20068;-61
2021/07/30 06:45:47;;;;;;;5.57;3.42;;;;;;;16.33;66.93;99278.53;4980286;28;20045;-61
2021/07/30 06:48:31;;;;;;;8.18;3.20;;;;;;;16.33;67.04;99275.94;4980752;28;20074;-63
2021/07/30 06:51:15;;;;;;;11.57;4.20;;;;;;;16.35;66.96;99282.84;4980276;28;20045;-61
2021/07/30 06:54:07;;;;;;;8.45;4.03;;;;;;;16.36;67.03;99281.06;4980169;28;20105;-61
2021/07/30 06:57:02;;;;;;;4.57;2.88;;;;;;;16.38;67.02;99269.72;4979589;28;20049;-62
2021/07/30 06:59:53;;;;;;;5.80;2.90;;;;;;;16.39;67.00;99281.91;4994442;28;20057;-63
2021/07/30 07:02:45;;;;;;;4.40;2.85;;;;;;;16.42;67.08;99267.88;4994526;28;20548;-62
2021/07/30 07:05:38;;;;;;;5.30;3.08;;;;;;;16.43;67.06;99275.69;4980123;28;20100;-61
2021/07/30 07:08:46;;;;;;;4.78;2.80;;;;;;;16.44;67.13;99272.19;5123439;27;20416;-64
2021/07/30 07:11:39;;;;;;;5.32;3.00;;;;;;;16.47;67.12;99267.78;5090044;28;20047;-63
2021/07/30 07:14:23;;;;;;;4.20;3.22;;;;;;;16.48;67.12;99275.63;5089857;28;20173;-62
2021/07/30 07:17:18;;;;;;;4.53;2.97;;;;;;;16.50;67.00;99265.13;5090224;28;20462;-61
2021/07/30 07:20:11;;;;;;;6.57;3.20;;;;;;;16.51;67.15;99265.06;5090833;28;20117;-62
2021/07/30 07:23:02;;;;;;;8.43;3.88;;;;;;;16.54;67.16;99270.25;5089854;28;20579;-63
2021/07/30 07:25:49;;;;;;;4.63;3.08;;;;;;;16.55;67.10;99261.50;5090141;28;20044;-63
2021/07/30 07:28:36;;;;;;;5.93;3.53;;;;;;;16.56;67.17;99268.47;5090844;28;20051;-62
2021/07/30 07:31:28;;;;;;;7.30;3.28;;;;;;;16.59;67.04;99267.53;5089726;28;20506;-62
2021/07/30 07:34:21;;;;;;;7.85;3.38;;;;;;;16.62;67.15;99258.78;5090337;28;20043;-62
2021/07/30 07:37:05;;;;;;;6.47;3.40;;;;;;;16.64;67.35;99259.59;5089439;28;20051;-62
2021/07/30 07:39:49;;;;;;;4.28;3.28;;;;;;;16.65;67.16;99264.78;5090377;28;20513;-61
2021/07/30 07:42:44;;;;;;;8.63;3.55;;;;;;;16.67;67.19;99268.25;5090719;28;20128;-61
2021/07/30 07:45:28;;;;;;;11.32;4.00;;;;;;;16.68;67.17;99250.78;5089354;28;20056;-61
2021/07/30 07:48:15;;;;;;;6.28;3.47;;;;;;;16.69;67.18;99247.25;5088845;28;20047;-61
2021/07/30 07:51:03;;;;;;;7.20;3.60;;;;;;;16.71;67.42;99243.75;5090725;28;20055;-64
2021/07/30 07:53:47;;;;;;;6.13;3.88;;;;;;;16.72;67.02;99241.97;5088977;28;20051;-64
2021/07/30 07:56:37;;;;;;;9.77;3.85;;;;;;;16.72;66.98;99242.84;5089708;28;20101;-61
2021/07/30 07:59:29;;;;;;;5.93;3.03;;;;;;;16.74;66.91;99241.03;5090333;28;20513;-61
2021/07/30 08:02:25;;;;;;;6.45;3.33;;;;;;;16.75;67.22;99231.44;5090031;28;20043;-61
2021/07/30 08:05:09;;;;;;;5.65;3.38;;;;;;;16.77;67.08;99237.50;5089867;28;20081;-62
2021/07/30 08:07:57;;;;;;;8.52;3.65;;;;;;;16.77;67.08;99229.66;5089560;28;20060;-62
2021/07/30 08:10:41;;;;;;;4.93;3.53;;;;;;;16.79;66.92;99230.50;5089877;28;20043;-63
2021/07/30 08:13:25;;;;;;;8.23;4.15;;;;;;;16.82;67.07;99229.53;5090088;28;20453;-61
2021/07/30 08:16:15;;;;;;;7.32;3.90;;;;;;;16.83;67.06;99239.13;5088639;28;20043;-61
2021/07/30 08:19:03;;;;;;;4.90;3.60;;;;;;;16.84;66.95;99222.53;5081697;28;20075;-62
2021/07/30 08:21:47;;;;;;;5.68;3.20;;;;;;;16.87;67.12;99225.09;5076197;28;20055;-61
2021/07/30 08:24:32;;;;;;;9.55;3.53;;;;;;;16.88;67.13;99217.19;5076382;28;20067;-61
2021/07/30 08:27:16;;;;;;;9.73;3.72;;;;;;;16.90;67.04;99219.75;5075966;28;20128;-61
2021/07/30 08:29:59;;;;;;;7.13;3.45;;;;;;;16.93;67.12;99216.22;5075408;28;20102;-61
2021/07/30 08:32:46;;;;;;;14.95;3.83;;;;;;;16.94;67.29;99215.31;5074811;28;20511;-63
2021/07/30 08:35:30;;;;;;;5.88;3.50;;;;;;;16.95;67.05;99212.69;5075107;28;20407;-63
2021/07/30 08:38:14;;;;;;;5.75;3.42;;;;;;;16.98;66.88;99216.97;5076023;28;20048;-64
2021/07/30 08:41:04;;;;;;;3.75;3.08;;;;;;;17.00;67.05;99210.84;5075710;28;20124;-61
2021/07/30 08:43:53;;;;;;;5.68;3.45;;;;;;;17.03;67.17;99217.75;5074833;28;20118;-63
2021/07/30 08:46:40;;;;;;;4.03;2.80;;;;;;;17.05;67.18;99222.03;5074988;28;20063;-64
2021/07/30 08:49:24;;;;;;;4.82;3.53;;;;;;;17.08;67.15;99221.13;5074965;28;20079;-63
2021/07/30 08:52:11;;;;;;;5.63;3.67;;;;;;;17.12;67.14;99220.16;5075354;28;20059;-64
2021/07/30 08:54:55;;;;;;;5.55;3.05;;;;;;;17.16;67.01;99206.06;5074817;28;20105;-63
2021/07/30 08:57:43;;;;;;;4.93;3.40;;;;;;;17.20;67.04;99206.88;5075774;28;20047;-62
2021/07/30 09:00:29;;;;;;;6.90;3.28;;;;;;;17.23;67.04;99214.63;5075641;28;20530;-62
2021/07/30 09:03:19;;;;;;;4.97;3.70;;;;;;;17.27;67.09;99205.81;5074588;28;20046;-61
2021/07/30 09:06:19;;;;;;;8.00;3.60;;;;;;;17.29;66.89;99196.16;5075134;28;20415;-62
2021/07/30 09:09:07;;;;;;;6.38;3.78;;;;;;;17.31;67.00;99191.75;5075199;28;20067;-62
2021/07/30 09:11:54;;;;;;;6.18;3.75;;;;;;;17.36;67.14;99191.63;5074553;28;20141;-62
2021/07/30 09:14:44;;;;;;;8.65;3.53;;;;;;;17.37;67.06;99190.75;5073958;28;20058;-62
2021/07/30 09:17:51;;;;;;;5.43;3.38;;;;;;;17.40;66.90;99179.31;5074468;28;20125;-61
2021/07/30 09:20:38;;;;;;;4.18;3.53;;;;;;;17.43;67.08;99174.88;5073652;28;20047;-61
2021/07/30 09:23:24;;;;;;;6.97;3.70;;;;;;;17.45;66.88;99169.59;5074997;28;20055;-61
2021/07/30 09:26:11;;;;;;;4.93;3.60;;;;;;;17.47;67.17;99163.41;5074882;28;20529;-61
2021/07/30 09:29:06;;;;;;;5.90;3.40;;;;;;;17.50;66.98;99165.94;5073886;28;20039;-63
2021/07/30 09:32:01;;;;;;;4.97;3.58;;;;;;;17.55;67.00;99168.44;5072752;28;20079;-61
2021/07/30 09:34:51;;;;;;;5.53;3.88;;;;;;;17.59;66.78;99170.09;5074349;28;20067;-63
2021/07/30 09:37:38;;;;;;;4.93;3.85;;;;;;;17.63;66.91;99158.63;5074762;28;20051;-63
2021/07/30 09:40:25;;;;;;;7.25;4.25;;;;;;;17.68;66.92;99153.25;5074715;28;20197;-63
2021/07/30 09:43:26;;;;;;;6.43;4.25;;;;;;;17.70;66.87;99156.69;5073801;28;20523;-63
2021/07/30 09:46:13;;;;;;;6.40;4.38;;;;;;;17.71;66.77;99147.06;5073317;28;20097;-63
2021/07/30 09:48:57;;;;;;;5.25;3.90;;;;;;;17.73;66.96;99142.63;5073482;28;20091;-63
2021/07/30 09:51:41;;;;;;;4.68;3.42;;;;;;;17.73;66.71;99147.88;5075137;28;20502;-62
2021/07/30 09:54:25;;;;;;;6.85;3.97;;;;;;;17.74;66.92;99133.88;5074142;28;20071;-63
2021/07/30 09:57:16;;;;;;;6.25;3.50;;;;;;;17.77;66.84;99133.81;5074504;28;20051;-63
2021/07/30 10:00:20;;;;;;;4.53;3.70;;;;;;;17.77;66.79;99133.81;5073539;28;20407;-62
2021/07/30 10:03:07;;;;;;;7.63;4.15;;;;;;;17.76;66.96;99127.69;5074615;28;20510;-63
2021/07/30 10:05:56;;;;;;;6.63;3.97;;;;;;;17.78;66.79;99127.66;5074536;28;20051;-63
2021/07/30 10:08:47;;;;;;;8.20;4.63;;;;;;;17.78;66.75;99122.41;5072985;28;20040;-63
2021/07/30 10:11:37;;;;;;;5.25;3.85;;;;;;;17.78;66.80;99125.03;5073310;28;20102;-63
2021/07/30 10:14:29;;;;;;;7.43;4.15;;;;;;;17.83;66.72;99117.03;5073258;28;20047;-63
2021/07/30 10:17:19;;;;;;;6.50;3.85;;;;;;;17.85;66.88;99121.31;5072773;28;20170;-63
2021/07/30 10:20:10;;;;;;;7.78;4.43;;;;;;;17.89;66.84;99124.75;5072786;28;20047;-63
2021/07/30 10:23:07;;;;;;;9.60;4.28;;;;;;;17.90;66.72;99111.56;5074122;28;20503;-63
2021/07/30 10:26:01;;;;;;;7.18;4.25;;;;;;;17.90;66.82;99111.56;5073135;28;20046;-63
2021/07/30 10:28:45;;;;;;;5.82;3.92;;;;;;;17.90;66.54;99111.56;5073782;28;20525;-63
2021/07/30 10:32:04;;;;;;;7.80;4.20;;;;;;;17.92;66.63;99112.41;5073876;28;20055;-63
2021/07/30 10:34:53;;;;;;;5.05;4.43;;;;;;;17.93;66.74;99111.50;5056300;28;20055;-63
2021/07/30 10:37:46;;;;;;;8.02;4.60;;;;;;;17.94;66.76;99097.50;5072444;28;20067;-63
2021/07/30 10:40:33;;;;;;;9.20;4.35;;;;;;;17.97;66.62;99104.38;5073966;28;20047;-63
2021/07/30 10:43:18;;;;;;;6.18;4.13;;;;;;;17.99;66.81;99110.50;5073450;28;20062;-63
2021/07/30 10:46:07;;;;;;;7.03;4.32;;;;;;;18.01;66.94;99097.31;5073768;28;20509;-63
2021/07/30 10:48:54;;;;;;;7.93;3.92;;;;;;;18.01;66.75;99105.19;5072826;28;20074;-63
2021/07/30 10:51:38;;;;;;;8.73;4.10;;;;;;;18.00;66.90;99106.97;5072526;28;20526;-63
2021/07/30 10:54:48;;;;;;;5.93;4.30;;;;;;;18.00;66.79;99093.84;5073573;28;20133;-63
2021/07/30 10:57:56;;;;;;;8.18;4.43;;;;;;;18.01;66.75;99097.31;5073232;28;20414;-63
2021/07/30 11:00:55;;;;;;;9.15;4.95;;;;;;;18.02;66.81;99093.78;5073426;28;20447;-61
2021/07/30 11:03:48;;;;;;;7.18;4.40;;;;;;;18.05;66.85;99086.72;5072826;28;20407;-62
2021/07/30 11:06:42;;;;;;;8.57;3.80;;;;;;;18.09;66.75;99084.84;5072831;28;20503;-62
2021/07/30 11:09:34;;;;;;;5.93;4.10;;;;;;;18.10;66.48;99083.94;5072528;28;20046;-62
2021/07/30 11:12:19;;;;;;;7.28;4.30;;;;;;;18.14;66.82;99085.56;5073508;28;20082;-63
2021/07/30 11:15:12;;;;;;;7.28;4.13;;;;;;;18.15;66.62;99081.19;5073096;28;20035;-63
2021/07/30 11:18:02;;;;;;;10.40;4.40;;;;;;;18.19;66.51;99067.09;5073027;28;20040;-63
2021/07/30 11:20:59;;;;;;;7.63;4.20;;;;;;;18.20;66.61;99080.13;5072361;28;20526;-63
2021/07/30 11:23:44;;;;;;;7.03;4.57;;;;;;;18.23;66.35;99079.16;5071955;28;20577;-63
2021/07/30 11:26:37;;;;;;;5.40;4.10;;;;;;;18.24;66.51;99066.03;5072327;28;20170;-63
2021/07/30 11:29:25;;;;;;;5.70;3.45;;;;;;;18.28;66.45;99072.03;5072035;28;20075;-64
2021/07/30 11:32:15;;;;;;;7.72;4.78;;;;;;;18.32;66.42;99070.16;5072070;28;20530;-61
2021/07/30 11:35:08;;;;;;;5.18;3.67;;;;;;;18.34;66.38;99073.59;5072324;28;20075;-61
2021/07/30 11:37:58;;;;;;;9.27;4.32;;;;;;;18.34;66.25;99077.09;5072261;28;20055;-61
2021/07/30 11:41:05;;;;;;;7.25;4.57;;;;;;;18.35;66.29;99063.06;5072084;28;20052;-62
2021/07/30 11:44:03;;;;;;;7.22;4.18;;;;;;;18.32;66.27;99075.41;5072367;28;20407;-61
2021/07/30 11:47:00;;;;;;;6.70;4.18;;;;;;;18.31;66.29;99068.44;5073127;28;20399;-61
2021/07/30 11:50:14;;;;;;;5.65;4.45;;;;;;;18.30;66.28;99070.22;5071763;28;20044;-62
2021/07/30 11:53:04;;;;;;;8.13;4.07;;;;;;;18.26;66.44;99079.09;5072769;28;20047;-61
2021/07/30 11:55:57;;;;;;;6.38;4.05;;;;;;;18.24;66.14;99055.53;5075722;28;20504;-63
2021/07/30 11:59:02;;;;;;;5.00;4.00;;;;;;;18.22;66.40;99059.97;5076155;28;20102;-64
2021/07/30 12:02:06;;;;;;;6.72;4.50;;;;;;;18.21;66.17;99060.03;5075897;28;20403;-63
2021/07/30 12:05:02;;;;;;;8.32;4.45;;;;;;;18.21;66.23;99063.50;5076450;28;20043;-63
2021/07/30 12:07:50;;;;;;;8.93;4.38;;;;;;;18.21;66.41;99049.53;5076385;28;20407;-63
2021/07/30 12:10:39;;;;;;;6.00;4.32;;;;;;;18.21;66.28;99052.16;5075967;28;20079;-63
2021/07/30 12:13:29;;;;;;;7.68;4.75;;;;;;;18.22;66.40;99057.34;5076691;28;20051;-63
2021/07/30 12:16:14;;;;;;;6.50;4.03;;;;;;;18.21;66.35;99087.09;5075623;28;20132;-63
2021/07/30 12:19:10;;;;;;;9.93;4.60;;;;;;;18.21;66.32;99071.38;5075359;28;20098;-61
2021/07/30 12:22:05;;;;;;;4.93;3.58;;;;;;;18.19;66.21;99062.69;5076295;28;20102;-62
2021/07/30 12:24:52;;;;;;;7.22;4.10;;;;;;;18.19;66.22;99061.84;5075172;28;20193;-62
2021/07/30 12:27:44;;;;;;;5.07;4.15;;;;;;;18.17;66.13;99064.50;5075833;28;20170;-62
2021/07/30 12:30:38;;;;;;;7.07;4.20;;;;;;;18.17;66.17;99064.50;5074994;28;20055;-62
2021/07/30 12:33:31;;;;;;;4.90;3.85;;;;;;;18.17;66.19;99056.63;5075772;28;20522;-61
2021/07/30 12:36:16;;;;;;;4.88;3.70;;;;;;;18.19;66.14;99073.19;5075732;28;20414;-61
2021/07/30 12:39:06;;;;;;;5.38;3.72;;;;;;;18.21;66.09;99070.53;5075803;28;20098;-64
2021/07/30 12:41:53;;;;;;;4.18;3.47;;;;;;;18.21;66.00;99060.03;5075821;28;20048;-64
2021/07/30 12:44:43;;;;;;;5.38;3.63;;;;;;;18.18;66.25;99053.09;5075664;28;20129;-63
2021/07/30 12:47:34;;;;;;;5.35;3.40;;;;;;;18.19;66.18;99057.44;5075000;28;20097;-63
2021/07/30 12:50:27;;;;;;;4.82;3.40;;;;;;;18.19;66.03;99060.06;5075005;28;20506;-63
2021/07/30 12:53:21;;;;;;;6.63;3.78;;;;;;;18.17;66.04;99058.41;5075002;28;20506;-63
2021/07/30 12:56:07;;;;;;;7.20;4.20;;;;;;;18.17;65.94;99056.63;5074394;28;20584;-63
2021/07/30 12:58:56;;;;;;;4.97;3.75;;;;;;;18.17;65.68;99048.75;5075668;28;20048;-63
2021/07/30 13:01:41;;;;;;;10.45;3.70;;;;;;;18.19;65.95;99061.84;5075577;28;20063;-63
2021/07/30 13:04:30;;;;;;;5.13;3.72;;;;;;;18.20;66.03;99047.81;5075676;28;20055;-62
2021/07/30 13:07:14;;;;;;;6.63;4.00;;;;;;;18.20;65.97;99042.59;5074042;28;20113;-62
2021/07/30 13:09:58;;;;;;;7.80;4.18;;;;;;;18.21;65.88;99046.94;5075261;28;20128;-61
2021/07/30 13:12:41;;;;;;;6.97;3.38;;;;;;;18.18;65.89;99037.38;5075319;28;20047;-62
2021/07/30 13:15:28;;;;;;;7.90;3.42;;;;;;;18.19;65.95;99035.63;5075105;28;20118;-61
2021/07/30 13:18:16;;;;;;;4.68;3.38;;;;;;;18.20;65.93;99017.19;5074209;28;20101;-62